sensor_id;sensor_type;location;lat;lon;timestamp;pressure;altitude;pressure_sealevel;temperature;humidity
57376;BME280;44805;45.048;5.062;2023-05-01T00:02:06;99601.47;;;13.01;96.13
57376;BME280;44805;45.048;5.062;2023-05-01T00:04:32;99625.25;;;13.01;96.91
57376;BME280;44805;45.048;5.062;2023-05-01T00:07:01;99575.25;;;12.67;97.40
57376;BME280;44805;45.048;5.062;2023-05-01T00:09:32;99622.25;;;13.21;96.50
57376;BME280;44805;45.048;5.062;2023-05-01T00:12:01;99624.72;;;13.14;97.26
57376;BME280;44805;45.048;5.062;2023-05-01T00:14:29;99593.69;;;13.08;96.29
57376;BME280;44805;45.048;5.062;2023-05-01T00:16:55;99600.97;;;13.06;96.63
57376;BME280;44805;45.048;5.062;2023-05-01T00:19:21;99623.59;;;13.33;96.38
57376;BME280;44805;45.048;5.062;2023-05-01T00:21:49;99666.69;;;13.42;97.72
57376;BME280;44805;45.048;5.062;2023-05-01T00:24:17;99577.16;;;13.06;97.19
57376;BME280;44805;45.048;5.062;2023-05-01T00:26:43;99532.25;;;12.90;96.33
57376;BME280;44805;45.048;5.062;2023-05-01T00:29:09;99539.88;;;12.93;96.20
57376;BME280;44805;45.048;5.062;2023-05-01T00:31:35;99660.03;;;13.62;96.87
57376;BME280;44805;45.048;5.062;2023-05-01T00:34:00;99538.56;;;12.80;96.82
57376;BME280;44805;45.048;5.062;2023-05-01T00:36:28;99520.75;;;12.66;97.39
57376;BME280;44805;45.048;5.062;2023-05-01T00:38:54;99575.53;;;12.97;97.90
57376;BME280;44805;45.048;5.062;2023-05-01T00:41:22;99569.25;;;13.06;97.73
57376;BME280;44805;45.048;5.062;2023-05-01T00:43:50;99560.00;;;13.02;97.30
57376;BME280;44805;45.048;5.062;2023-05-01T00:46:21;99559.66;;;13.13;96.49
57376;BME280;44805;45.048;5.062;2023-05-01T00:48:47;99594.81;;;13.38;96.87
57376;BME280;44805;45.048;5.062;2023-05-01T00:51:15;99513.78;;;12.98;96.36
57376;BME280;44805;45.048;5.062;2023-05-01T00:53:42;99587.50;;;13.40;96.51
57376;BME280;44805;45.048;5.062;2023-05-01T00:56:08;99548.41;;;13.11;96.17
57376;BME280;44805;45.048;5.062;2023-05-01T00:58:35;99526.47;;;12.94;97.21
57376;BME280;44805;45.048;5.062;2023-05-01T01:01:02;99557.00;;;13.13;97.36
57376;BME280;44805;45.048;5.062;2023-05-01T01:03:29;99505.72;;;12.83;98.18
57376;BME280;44805;45.048;5.062;2023-05-01T01:06:27;99558.97;;;13.28;97.34
57376;BME280;44805;45.048;5.062;2023-05-01T01:12:27;99628.28;;;13.62;97.04
57376;BME280;44805;45.048;5.062;2023-05-01T01:15:22;99615.06;;;13.62;96.99
57376;BME280;44805;45.048;5.062;2023-05-01T01:18:07;99614.28;;;13.54;97.70
57376;BME280;44805;45.048;5.062;2023-05-01T01:20:56;99608.78;;;13.55;97.93
57376;BME280;44805;45.048;5.062;2023-05-01T01:26:09;99583.19;;;13.48;98.38
57376;BME280;44805;45.048;5.062;2023-05-01T01:34:31;99595.13;;;13.43;96.84
57376;BME280;44805;45.048;5.062;2023-05-01T01:37:10;99565.22;;;13.35;97.57
57376;BME280;44805;45.048;5.062;2023-05-01T01:39:53;99588.28;;;13.57;95.03
57376;BME280;44805;45.048;5.062;2023-05-01T01:42:23;99510.09;;;13.07;97.07
57376;BME280;44805;45.048;5.062;2023-05-01T01:44:53;99595.44;;;13.49;96.08
57376;BME280;44805;45.048;5.062;2023-05-01T01:47:21;99591.59;;;13.59;94.35
57376;BME280;44805;45.048;5.062;2023-05-01T01:49:53;99509.13;;;13.08;94.99
57376;BME280;44805;45.048;5.062;2023-05-01T01:52:20;99586.97;;;13.53;94.33
57376;BME280;44805;45.048;5.062;2023-05-01T01:54:53;99510.41;;;13.12;93.25
57376;BME280;44805;45.048;5.062;2023-05-01T01:57:22;99453.53;;;12.77;93.44
57376;BME280;44805;45.048;5.062;2023-05-01T01:59:50;99463.63;;;12.73;92.32
57376;BME280;44805;45.048;5.062;2023-05-01T02:02:17;99537.31;;;13.24;92.17
57376;BME280;44805;45.048;5.062;2023-05-01T02:04:45;99584.94;;;13.63;90.17
57376;BME280;44805;45.048;5.062;2023-05-01T02:07:12;99462.09;;;12.87;89.73
57376;BME280;44805;45.048;5.062;2023-05-01T02:09:40;99475.28;;;12.95;86.73
57376;BME280;44805;45.048;5.062;2023-05-01T02:12:07;99457.00;;;12.86;87.15
57376;BME280;44805;45.048;5.062;2023-05-01T02:14:34;99517.31;;;13.30;85.96
57376;BME280;44805;45.048;5.062;2023-05-01T02:17:02;99588.84;;;13.76;83.09
57376;BME280;44805;45.048;5.062;2023-05-01T02:19:31;99493.19;;;13.24;82.70
57376;BME280;44805;45.048;5.062;2023-05-01T02:21:58;99531.09;;;13.56;83.22
57376;BME280;44805;45.048;5.062;2023-05-01T02:24:27;99531.41;;;13.53;83.12
57376;BME280;44805;45.048;5.062;2023-05-01T02:26:56;99462.50;;;13.07;84.19
57376;BME280;44805;45.048;5.062;2023-05-01T02:29:24;99515.94;;;13.42;83.17
57376;BME280;44805;45.048;5.062;2023-05-01T02:31:51;99537.03;;;13.58;81.21
57376;BME280;44805;45.048;5.062;2023-05-01T02:34:16;99510.81;;;13.49;79.65
57376;BME280;44805;45.048;5.062;2023-05-01T02:36:42;99542.91;;;13.68;79.63
57376;BME280;44805;45.048;5.062;2023-05-01T02:39:07;99517.72;;;13.50;79.30
57376;BME280;44805;45.048;5.062;2023-05-01T02:41:34;99523.69;;;13.52;78.64
57376;BME280;44805;45.048;5.062;2023-05-01T02:44:01;99467.44;;;13.27;78.29
57376;BME280;44805;45.048;5.062;2023-05-01T02:46:34;99595.16;;;14.06;79.23
57376;BME280;44805;45.048;5.062;2023-05-01T02:49:02;99592.34;;;14.07;77.41
57376;BME280;44805;45.048;5.062;2023-05-01T02:51:29;99546.38;;;13.77;78.21
57376;BME280;44805;45.048;5.062;2023-05-01T02:53:58;99547.53;;;13.75;78.18
57376;BME280;44805;45.048;5.062;2023-05-01T02:56:25;99471.38;;;13.31;77.56
57376;BME280;44805;45.048;5.062;2023-05-01T02:58:51;99463.75;;;13.36;77.41
57376;BME280;44805;45.048;5.062;2023-05-01T03:01:17;99559.09;;;13.74;77.49
57376;BME280;44805;45.048;5.062;2023-05-01T03:03:43;99591.69;;;14.05;76.86
57376;BME280;44805;45.048;5.062;2023-05-01T03:06:11;99523.63;;;13.60;77.34
57376;BME280;44805;45.048;5.062;2023-05-01T03:08:40;99540.28;;;13.68;77.46
57376;BME280;44805;45.048;5.062;2023-05-01T03:11:06;99544.22;;;13.73;78.16
57376;BME280;44805;45.048;5.062;2023-05-01T03:13:32;99488.22;;;13.30;78.93
57376;BME280;44805;45.048;5.062;2023-05-01T03:15:58;99513.97;;;13.44;78.72
57376;BME280;44805;45.048;5.062;2023-05-01T03:18:24;99538.59;;;13.76;77.95
57376;BME280;44805;45.048;5.062;2023-05-01T03:20:53;99525.06;;;13.71;78.01
57376;BME280;44805;45.048;5.062;2023-05-01T03:23:19;99501.69;;;13.51;79.03
57376;BME280;44805;45.048;5.062;2023-05-01T03:25:45;99487.88;;;13.41;77.85
57376;BME280;44805;45.048;5.062;2023-05-01T03:28:11;99502.03;;;13.48;77.52
57376;BME280;44805;45.048;5.062;2023-05-01T03:30:36;99496.72;;;13.48;77.35
57376;BME280;44805;45.048;5.062;2023-05-01T03:33:02;99583.09;;;14.03;76.80
57376;BME280;44805;45.048;5.062;2023-05-01T03:35:27;99473.59;;;13.50;76.75
57376;BME280;44805;45.048;5.062;2023-05-01T03:37:55;99494.69;;;13.58;77.30
57376;BME280;44805;45.048;5.062;2023-05-01T03:40:20;99455.34;;;13.32;76.91
57376;BME280;44805;45.048;5.062;2023-05-01T03:42:46;99473.63;;;13.42;78.18
57376;BME280;44805;45.048;5.062;2023-05-01T03:45:11;99427.66;;;13.12;77.83
57376;BME280;44805;45.048;5.062;2023-05-01T03:47:37;99489.16;;;13.45;78.67
57376;BME280;44805;45.048;5.062;2023-05-01T03:50:03;99529.06;;;13.66;78.84
57376;BME280;44805;45.048;5.062;2023-05-01T03:52:29;99451.22;;;13.21;78.52
57376;BME280;44805;45.048;5.062;2023-05-01T03:54:54;99531.22;;;13.63;79.17
57376;BME280;44805;45.048;5.062;2023-05-01T03:57:20;99501.41;;;13.46;78.87
57376;BME280;44805;45.048;5.062;2023-05-01T03:59:47;99496.22;;;13.53;78.13
57376;BME280;44805;45.048;5.062;2023-05-01T04:02:12;99499.97;;;13.58;78.12
57376;BME280;44805;45.048;5.062;2023-05-01T04:04:38;99514.22;;;13.57;78.14
57376;BME280;44805;45.048;5.062;2023-05-01T04:07:04;99501.41;;;13.46;78.84
57376;BME280;44805;45.048;5.062;2023-05-01T04:09:29;99539.81;;;13.65;78.42
57376;BME280;44805;45.048;5.062;2023-05-01T04:11:55;99466.09;;;13.31;77.81
57376;BME280;44805;45.048;5.062;2023-05-01T04:14:20;99520.47;;;13.64;78.12
57376;BME280;44805;45.048;5.062;2023-05-01T04:16:46;99508.78;;;13.59;77.75
57376;BME280;44805;45.048;5.062;2023-05-01T04:19:12;99519.50;;;13.57;77.72
57376;BME280;44805;45.048;5.062;2023-05-01T04:21:37;99454.38;;;13.17;77.56
57376;BME280;44805;45.048;5.062;2023-05-01T04:24:03;99548.50;;;13.82;76.55
57376;BME280;44805;45.048;5.062;2023-05-01T04:26:29;99600.09;;;14.09;77.86
57376;BME280;44805;45.048;5.062;2023-05-01T04:28:54;99539.00;;;13.64;77.96
57376;BME280;44805;45.048;5.062;2023-05-01T04:31:20;99567.66;;;13.84;78.19
57376;BME280;44805;45.048;5.062;2023-05-01T04:33:47;99501.72;;;13.43;78.29
57376;BME280;44805;45.048;5.062;2023-05-01T04:36:13;99531.41;;;13.61;76.90
57376;BME280;44805;45.048;5.062;2023-05-01T04:38:38;99527.03;;;13.68;78.13
57376;BME280;44805;45.048;5.062;2023-05-01T04:41:04;99532.94;;;13.79;78.01
57376;BME280;44805;45.048;5.062;2023-05-01T04:43:30;99560.50;;;13.93;77.21
57376;BME280;44805;45.048;5.062;2023-05-01T04:45:56;99555.22;;;13.93;77.12
57376;BME280;44805;45.048;5.062;2023-05-01T04:48:22;99505.38;;;13.42;78.51
57376;BME280;44805;45.048;5.062;2023-05-01T04:50:47;99609.94;;;14.23;78.41
57376;BME280;44805;45.048;5.062;2023-05-01T04:53:13;99543.94;;;13.67;77.57
57376;BME280;44805;45.048;5.062;2023-05-01T04:55:39;99475.97;;;13.37;77.03
57376;BME280;44805;45.048;5.062;2023-05-01T04:58:04;99508.41;;;13.62;77.51
57376;BME280;44805;45.048;5.062;2023-05-01T05:00:30;99522.72;;;13.76;76.90
57376;BME280;44805;45.048;5.062;2023-05-01T05:02:56;99525.41;;;13.67;77.76
57376;BME280;44805;45.048;5.062;2023-05-01T05:05:22;99550.59;;;13.86;76.98
57376;BME280;44805;45.048;5.062;2023-05-01T05:07:47;99488.13;;;13.54;76.96
57376;BME280;44805;45.048;5.062;2023-05-01T05:10:13;99550.72;;;13.93;77.24
57376;BME280;44805;45.048;5.062;2023-05-01T05:12:39;99552.81;;;13.75;78.10
57376;BME280;44805;45.048;5.062;2023-05-01T05:15:05;99553.44;;;13.85;76.82
57376;BME280;44805;45.048;5.062;2023-05-01T05:17:30;99559.69;;;13.92;76.65
57376;BME280;44805;45.048;5.062;2023-05-01T05:19:56;99520.16;;;13.59;77.50
57376;BME280;44805;45.048;5.062;2023-05-01T05:22:21;99487.47;;;13.52;76.53
57376;BME280;44805;45.048;5.062;2023-05-01T05:24:52;99562.94;;;13.94;77.22
57376;BME280;44805;45.048;5.062;2023-05-01T05:27:18;99584.06;;;14.10;76.04
57376;BME280;44805;45.048;5.062;2023-05-01T05:29:47;99525.56;;;13.66;74.93
57376;BME280;44805;45.048;5.062;2023-05-01T05:32:12;99567.63;;;13.92;76.60
57376;BME280;44805;45.048;5.062;2023-05-01T05:34:43;99535.03;;;13.60;75.75
57376;BME280;44805;45.048;5.062;2023-05-01T05:37:08;99573.22;;;13.97;76.78
57376;BME280;44805;45.048;5.062;2023-05-01T05:39:34;99532.00;;;13.72;76.11
57376;BME280;44805;45.048;5.062;2023-05-01T05:41:59;99599.56;;;14.14;75.92
57376;BME280;44805;45.048;5.062;2023-05-01T05:44:25;99562.44;;;13.99;76.49
57376;BME280;44805;45.048;5.062;2023-05-01T05:46:59;99595.59;;;14.18;75.64
57376;BME280;44805;45.048;5.062;2023-05-01T05:49:24;99516.47;;;13.68;76.08
57376;BME280;44805;45.048;5.062;2023-05-01T05:51:50;99647.31;;;14.60;76.23
57376;BME280;44805;45.048;5.062;2023-05-01T05:54:15;99566.53;;;14.09;75.87
57376;BME280;44805;45.048;5.062;2023-05-01T05:56:41;99575.50;;;14.00;74.97
57376;BME280;44805;45.048;5.062;2023-05-01T05:59:07;99602.88;;;14.16;75.54
57376;BME280;44805;45.048;5.062;2023-05-01T06:01:32;99573.16;;;14.05;75.04
57376;BME280;44805;45.048;5.062;2023-05-01T06:03:58;99539.28;;;13.70;75.05
57376;BME280;44805;45.048;5.062;2023-05-01T06:06:23;99552.25;;;13.87;75.13
57376;BME280;44805;45.048;5.062;2023-05-01T06:08:50;99623.91;;;14.40;73.80
57376;BME280;44805;45.048;5.062;2023-05-01T06:11:16;99608.66;;;14.42;72.92
57376;BME280;44805;45.048;5.062;2023-05-01T06:13:41;99620.63;;;14.38;73.14
57376;BME280;44805;45.048;5.062;2023-05-01T06:16:07;99565.94;;;13.99;72.71
57376;BME280;44805;45.048;5.062;2023-05-01T06:18:32;99596.63;;;14.08;73.51
57376;BME280;44805;45.048;5.062;2023-05-01T06:20:58;99585.69;;;14.11;74.10
57376;BME280;44805;45.048;5.062;2023-05-01T06:23:24;99632.09;;;14.30;73.59
57376;BME280;44805;45.048;5.062;2023-05-01T06:25:50;99621.66;;;14.29;73.56
57376;BME280;44805;45.048;5.062;2023-05-01T06:28:15;99551.97;;;13.82;73.80
57376;BME280;44805;45.048;5.062;2023-05-01T06:30:42;99625.13;;;14.29;74.18
57376;BME280;44805;45.048;5.062;2023-05-01T06:33:08;99600.69;;;14.19;73.77
57376;BME280;44805;45.048;5.062;2023-05-01T06:35:35;99639.25;;;14.45;72.81
57376;BME280;44805;45.048;5.062;2023-05-01T06:38:00;99556.97;;;14.00;72.35
57376;BME280;44805;45.048;5.062;2023-05-01T06:40:27;99685.59;;;14.80;72.26
57376;BME280;44805;45.048;5.062;2023-05-01T06:42:52;99558.00;;;13.91;72.97
57376;BME280;44805;45.048;5.062;2023-05-01T06:45:18;99633.09;;;14.52;72.36
57376;BME280;44805;45.048;5.062;2023-05-01T06:47:43;99685.22;;;14.83;71.83
57376;BME280;44805;45.048;5.062;2023-05-01T06:50:09;99641.31;;;14.66;72.63
57376;BME280;44805;45.048;5.062;2023-05-01T06:52:35;99585.25;;;14.31;72.47
57376;BME280;44805;45.048;5.062;2023-05-01T06:55:00;99652.44;;;14.84;72.69
57376;BME280;44805;45.048;5.062;2023-05-01T06:57:26;99571.28;;;14.37;72.11
57376;BME280;44805;45.048;5.062;2023-05-01T06:59:51;99645.59;;;14.90;72.40
57376;BME280;44805;45.048;5.062;2023-05-01T07:02:18;99688.84;;;15.28;71.70
57376;BME280;44805;45.048;5.062;2023-05-01T07:04:43;99666.78;;;15.28;71.39
57376;BME280;44805;45.048;5.062;2023-05-01T07:07:09;99633.38;;;15.04;71.26
57376;BME280;44805;45.048;5.062;2023-05-01T07:09:35;99640.31;;;15.05;69.73
57376;BME280;44805;45.048;5.062;2023-05-01T07:12:00;99648.94;;;15.07;70.63
57376;BME280;44805;45.048;5.062;2023-05-01T07:14:27;99624.09;;;14.85;70.83
57376;BME280;44805;45.048;5.062;2023-05-01T07:16:53;99576.06;;;14.65;70.78
57376;BME280;44805;45.048;5.062;2023-05-01T07:19:19;99653.28;;;15.00;70.73
57376;BME280;44805;45.048;5.062;2023-05-01T07:21:45;99581.94;;;14.52;70.88
57376;BME280;44805;45.048;5.062;2023-05-01T07:24:10;99588.13;;;14.44;71.02
57376;BME280;44805;45.048;5.062;2023-05-01T07:26:36;99626.47;;;14.80;71.20
57376;BME280;44805;45.048;5.062;2023-05-01T07:29:03;99586.28;;;14.45;70.33
57376;BME280;44805;45.048;5.062;2023-05-01T07:31:29;99577.00;;;14.49;71.21
57376;BME280;44805;45.048;5.062;2023-05-01T07:33:54;99588.03;;;14.52;70.77
57376;BME280;44805;45.048;5.062;2023-05-01T07:36:22;99581.84;;;14.45;70.44
57376;BME280;44805;45.048;5.062;2023-05-01T07:41:18;99694.78;;;15.30;71.10
57376;BME280;44805;45.048;5.062;2023-05-01T07:46:12;99602.28;;;14.97;70.60
57376;BME280;44805;45.048;5.062;2023-05-01T07:52:01;99603.13;;;14.75;69.87
57376;BME280;44805;45.048;5.062;2023-05-01T07:54:44;99610.97;;;14.91;69.72
57376;BME280;44805;45.048;5.062;2023-05-01T07:57:12;99588.16;;;14.82;68.56
57376;BME280;44805;45.048;5.062;2023-05-01T07:59:38;99600.00;;;14.94;67.76
57376;BME280;44805;45.048;5.062;2023-05-01T08:02:04;99618.03;;;15.14;67.24
57376;BME280;44805;45.048;5.062;2023-05-01T08:04:30;99608.13;;;15.08;68.17
57376;BME280;44805;45.048;5.062;2023-05-01T08:06:56;99592.97;;;15.31;68.05
57376;BME280;44805;45.048;5.062;2023-05-01T08:09:21;99592.53;;;15.28;67.75
57376;BME280;44805;45.048;5.062;2023-05-01T08:11:47;99591.78;;;15.34;67.66
57376;BME280;44805;45.048;5.062;2023-05-01T08:14:13;99582.09;;;15.11;67.27
57376;BME280;44805;45.048;5.062;2023-05-01T08:16:42;99588.34;;;14.81;68.04
57376;BME280;44805;45.048;5.062;2023-05-01T08:19:07;99578.13;;;14.92;67.19
57376;BME280;44805;45.048;5.062;2023-05-01T08:21:34;99582.94;;;14.74;67.18
57376;BME280;44805;45.048;5.062;2023-05-01T08:24:00;99622.53;;;14.90;67.92
57376;BME280;44805;45.048;5.062;2023-05-01T08:26:25;99591.72;;;14.74;67.65
57376;BME280;44805;45.048;5.062;2023-05-01T08:28:55;99575.03;;;14.89;67.63
57376;BME280;44805;45.048;5.062;2023-05-01T08:31:26;99575.94;;;14.81;67.50
57376;BME280;44805;45.048;5.062;2023-05-01T08:34:04;99702.97;;;15.58;67.55
57376;BME280;44805;45.048;5.062;2023-05-01T08:36:31;99588.94;;;15.06;66.65
57376;BME280;44805;45.048;5.062;2023-05-01T08:38:58;99666.88;;;15.72;67.48
57376;BME280;44805;45.048;5.062;2023-05-01T08:41:26;99597.56;;;15.23;67.14
57376;BME280;44805;45.048;5.062;2023-05-01T08:43:57;99592.63;;;15.34;66.39
57376;BME280;44805;45.048;5.062;2023-05-01T08:49:23;99593.34;;;15.58;64.88
57376;BME280;44805;45.048;5.062;2023-05-01T08:51:51;99652.50;;;16.18;64.03
57376;BME280;44805;45.048;5.062;2023-05-01T08:57:47;99584.47;;;15.66;63.88
57376;BME280;44805;45.048;5.062;2023-05-01T09:00:18;99699.88;;;16.50;63.49
57376;BME280;44805;45.048;5.062;2023-05-01T09:02:47;99636.38;;;16.19;63.84
57376;BME280;44805;45.048;5.062;2023-05-01T09:05:20;99581.44;;;15.83;63.71
57376;BME280;44805;45.048;5.062;2023-05-01T09:07:47;99599.53;;;15.95;62.86
57376;BME280;44805;45.048;5.062;2023-05-01T09:10:44;99595.72;;;15.82;62.66
57376;BME280;44805;45.048;5.062;2023-05-01T09:13:10;99595.56;;;15.69;63.40
57376;BME280;44805;45.048;5.062;2023-05-01T09:15:38;99575.59;;;15.73;62.48
57376;BME280;44805;45.048;5.062;2023-05-01T09:21:10;99574.59;;;15.74;63.51
57376;BME280;44805;45.048;5.062;2023-05-01T09:23:36;99566.53;;;15.53;63.86
57376;BME280;44805;45.048;5.062;2023-05-01T09:40:14;99706.38;;;17.06;63.31
57376;BME280;44805;45.048;5.062;2023-05-01T09:42:48;99662.47;;;16.74;61.42
57376;BME280;44805;45.048;5.062;2023-05-01T09:45:15;99592.69;;;16.43;59.93
57376;BME280;44805;45.048;5.062;2023-05-01T09:47:41;99563.59;;;16.35;59.91
57376;BME280;44805;45.048;5.062;2023-05-01T09:50:09;99590.63;;;16.39;59.87
57376;BME280;44805;45.048;5.062;2023-05-01T09:52:35;99657.19;;;16.95;60.31
57376;BME280;44805;45.048;5.062;2023-05-01T09:55:17;99629.47;;;16.83;60.64
57376;BME280;44805;45.048;5.062;2023-05-01T09:57:44;99639.41;;;16.96;59.45
57376;BME280;44805;45.048;5.062;2023-05-01T10:00:12;99598.25;;;16.70;59.01
57376;BME280;44805;45.048;5.062;2023-05-01T10:02:45;99620.84;;;16.81;58.75
57376;BME280;44805;45.048;5.062;2023-05-01T10:07:59;99713.00;;;17.73;58.56
57376;BME280;44805;45.048;5.062;2023-05-01T10:10:26;99710.75;;;17.70;59.04
57376;BME280;44805;45.048;5.062;2023-05-01T10:12:52;99696.72;;;17.54;58.22
57376;BME280;44805;45.048;5.062;2023-05-01T10:15:18;99669.34;;;17.32;58.31
57376;BME280;44805;45.048;5.062;2023-05-01T10:17:44;99642.88;;;16.96;59.82
57376;BME280;44805;45.048;5.062;2023-05-01T10:20:11;99663.66;;;17.07;59.39
57376;BME280;44805;45.048;5.062;2023-05-01T10:22:38;99633.25;;;16.95;59.59
57376;BME280;44805;45.048;5.062;2023-05-01T10:25:17;99685.13;;;17.34;59.77
57376;BME280;44805;45.048;5.062;2023-05-01T10:30:47;99710.34;;;17.73;58.89
57376;BME280;44805;45.048;5.062;2023-05-01T10:33:18;99613.53;;;16.83;58.87
57376;BME280;44805;45.048;5.062;2023-05-01T10:35:47;99692.06;;;17.35;57.88
57376;BME280;44805;45.048;5.062;2023-05-01T10:38:22;99648.59;;;17.21;58.51
57376;BME280;44805;45.048;5.062;2023-05-01T10:41:02;99658.44;;;17.27;58.24
57376;BME280;44805;45.048;5.062;2023-05-01T10:43:30;99612.88;;;17.02;58.31
57376;BME280;44805;45.048;5.062;2023-05-01T10:48:54;99634.72;;;17.26;58.85
57376;BME280;44805;45.048;5.062;2023-05-01T10:51:21;99708.31;;;17.75;57.80
57376;BME280;44805;45.048;5.062;2023-05-01T10:53:48;99699.47;;;17.40;57.56
57376;BME280;44805;45.048;5.062;2023-05-01T11:01:42;99710.44;;;17.51;57.37
57376;BME280;44805;45.048;5.062;2023-05-01T11:10:00;99703.13;;;17.95;55.57
57376;BME280;44805;45.048;5.062;2023-05-01T11:15:24;99691.09;;;17.71;55.73
57376;BME280;44805;45.048;5.062;2023-05-01T11:17:50;99660.19;;;17.76;55.90
57376;BME280;44805;45.048;5.062;2023-05-01T11:22:52;99628.19;;;18.05;54.45
57376;BME280;44805;45.048;5.062;2023-05-01T11:28:40;99680.81;;;18.51;53.83
57376;BME280;44805;45.048;5.062;2023-05-01T11:31:06;99676.69;;;18.48;53.02
57376;BME280;44805;45.048;5.062;2023-05-01T11:33:38;99640.69;;;18.04;54.01
57376;BME280;44805;45.048;5.062;2023-05-01T11:39:13;99590.44;;;17.94;52.70
57376;BME280;44805;45.048;5.062;2023-05-01T11:41:41;99643.63;;;18.29;52.65
57376;BME280;44805;45.048;5.062;2023-05-01T11:44:07;99593.16;;;18.21;52.78
57376;BME280;44805;45.048;5.062;2023-05-01T11:46:33;99679.88;;;18.92;53.03
57376;BME280;44805;45.048;5.062;2023-05-01T11:49:00;99583.97;;;18.17;50.92
57376;BME280;44805;45.048;5.062;2023-05-01T11:51:31;99672.19;;;18.55;52.96
57376;BME280;44805;45.048;5.062;2023-05-01T11:54:21;99577.31;;;17.93;52.84
57376;BME280;44805;45.048;5.062;2023-05-01T12:04:08;99592.84;;;17.83;50.60
57376;BME280;44805;45.048;5.062;2023-05-01T12:06:44;99558.31;;;17.54;49.86
57376;BME280;44805;45.048;5.062;2023-05-01T12:09:25;99562.44;;;17.64;50.55
57376;BME280;44805;45.048;5.062;2023-05-01T12:15:38;99543.38;;;18.41;51.40
57376;BME280;44805;45.048;5.062;2023-05-01T12:18:07;99653.78;;;19.34;51.77
57376;BME280;44805;45.048;5.062;2023-05-01T12:20:58;99630.00;;;18.85;49.02
57376;BME280;44805;45.048;5.062;2023-05-01T12:23:32;99646.38;;;19.49;48.78
57376;BME280;44805;45.048;5.062;2023-05-01T12:26:01;99552.34;;;19.27;47.04
57376;BME280;44805;45.048;5.062;2023-05-01T12:28:36;99551.56;;;19.20;44.86
57376;BME280;44805;45.048;5.062;2023-05-01T12:31:10;99561.06;;;18.89;47.16
57376;BME280;44805;45.048;5.062;2023-05-01T12:33:57;99549.34;;;18.70;47.71
57376;BME280;44805;45.048;5.062;2023-05-01T12:36:59;99547.66;;;19.16;48.08
57376;BME280;44805;45.048;5.062;2023-05-01T12:39:39;99540.94;;;19.58;47.86
57376;BME280;44805;45.048;5.062;2023-05-01T12:42:42;99581.44;;;19.55;48.27
57376;BME280;44805;45.048;5.062;2023-05-01T12:45:11;99540.50;;;19.16;49.29
57376;BME280;44805;45.048;5.062;2023-05-01T12:47:47;99531.44;;;19.11;48.19
57376;BME280;44805;45.048;5.062;2023-05-01T12:50:18;99518.38;;;18.96;48.29
57376;BME280;44805;45.048;5.062;2023-05-01T12:52:44;99602.78;;;19.55;44.58
57376;BME280;44805;45.048;5.062;2023-05-01T12:55:10;99623.56;;;20.11;44.42
57376;BME280;44805;45.048;5.062;2023-05-01T12:57:52;99587.31;;;20.22;44.26
57376;BME280;44805;45.048;5.062;2023-05-01T13:00:18;99587.16;;;19.72;45.97
57376;BME280;44805;45.048;5.062;2023-05-01T13:02:44;99515.69;;;18.89;46.31
57376;BME280;44805;45.048;5.062;2023-05-01T13:05:12;99540.75;;;18.81;46.58
57376;BME280;44805;45.048;5.062;2023-05-01T13:07:38;99540.53;;;18.96;45.67
57376;BME280;44805;45.048;5.062;2023-05-01T13:10:04;99533.84;;;19.39;45.20
57376;BME280;44805;45.048;5.062;2023-05-01T13:12:31;99533.34;;;19.62;44.76
57376;BME280;44805;45.048;5.062;2023-05-01T13:14:57;99568.09;;;19.48;45.71
57376;BME280;44805;45.048;5.062;2023-05-01T13:19:56;99533.88;;;19.32;43.11
57376;BME280;44805;45.048;5.062;2023-05-01T13:22:29;99588.88;;;19.33;44.15
57376;BME280;44805;45.048;5.062;2023-05-01T13:24:55;99517.13;;;18.92;44.46
57376;BME280;44805;45.048;5.062;2023-05-01T13:27:21;99512.03;;;18.77;44.57
57376;BME280;44805;45.048;5.062;2023-05-01T13:29:57;99595.22;;;19.52;45.37
57376;BME280;44805;45.048;5.062;2023-05-01T13:32:24;99613.00;;;19.85;43.98
57376;BME280;44805;45.048;5.062;2023-05-01T13:34:50;99574.06;;;20.02;44.66
57376;BME280;44805;45.048;5.062;2023-05-01T13:37:16;99560.41;;;19.79;45.11
57376;BME280;44805;45.048;5.062;2023-05-01T13:39:43;99531.09;;;19.59;43.84
57376;BME280;44805;45.048;5.062;2023-05-01T13:45:20;99554.06;;;19.73;43.79
57376;BME280;44805;45.048;5.062;2023-05-01T13:47:48;99600.19;;;20.00;43.04
57376;BME280;44805;45.048;5.062;2023-05-01T13:50:14;99581.72;;;19.92;41.53
57376;BME280;44805;45.048;5.062;2023-05-01T13:52:43;99600.13;;;20.07;41.04
57376;BME280;44805;45.048;5.062;2023-05-01T13:55:09;99521.94;;;19.35;42.12
57376;BME280;44805;45.048;5.062;2023-05-01T13:57:38;99514.66;;;18.97;43.67
57376;BME280;44805;45.048;5.062;2023-05-01T14:00:10;99562.19;;;19.33;43.96
57376;BME280;44805;45.048;5.062;2023-05-01T14:02:43;99540.50;;;19.16;44.37
57376;BME280;44805;45.048;5.062;2023-05-01T14:05:09;99536.91;;;19.36;43.92
57376;BME280;44805;45.048;5.062;2023-05-01T14:07:55;99575.63;;;19.71;44.33
57376;BME280;44805;45.048;5.062;2023-05-01T14:10:22;99562.91;;;19.73;43.20
57376;BME280;44805;45.048;5.062;2023-05-01T14:12:50;99598.59;;;19.92;43.53
57376;BME280;44805;45.048;5.062;2023-05-01T14:15:18;99595.47;;;19.95;44.09
57376;BME280;44805;45.048;5.062;2023-05-01T14:17:44;99578.09;;;19.80;44.30
57376;BME280;44805;45.048;5.062;2023-05-01T14:20:10;99579.91;;;19.86;45.23
57376;BME280;44805;45.048;5.062;2023-05-01T14:22:41;99607.94;;;20.15;44.15
57376;BME280;44805;45.048;5.062;2023-05-01T14:28:16;99592.16;;;19.42;44.73
57376;BME280;44805;45.048;5.062;2023-05-01T14:30:42;99602.88;;;19.28;45.46
57376;BME280;44805;45.048;5.062;2023-05-01T14:33:10;99529.88;;;18.76;45.58
57376;BME280;44805;45.048;5.062;2023-05-01T14:35:36;99578.19;;;19.40;44.69
57376;BME280;44805;45.048;5.062;2023-05-01T14:38:12;99571.25;;;19.25;44.44
57376;BME280;44805;45.048;5.062;2023-05-01T14:40:39;99558.97;;;19.04;44.89
57376;BME280;44805;45.048;5.062;2023-05-01T14:43:09;99609.44;;;19.33;44.81